Sanko Independence — A8QJ9 — position and weather

sailwx.info

Track history (hours):
 
Tides and Currents Weather Stations Pressure Air Temp Water Temp Dewpoint Dewpoint Depression Visibility Wind Speed Wind Dir Waves Ship Positions

Sanko Independence

Last reported at 2017-Jul-13 21:45 UTC. Time now 2017-Jul-23 12:39 UTC.
Position N 48°57' W 006°42'.
Warning: this ship's position is 9 days out of date.

Length 174 m; draft 7.8 m.

Type: Ship (hazmat cat B). MMSI: 636013946.

Date/timePositionNaut miles runAvg speedWind from/ knotsBaromVisibWave heightAir tempDewpointWater temp
2017-Jul-13 21:45N 48°57' W 006°42'816.0
2017-Jul-13 21:15N 49°00' W 006°30'415.8
2017-Jul-13 21:00N 49°02' W 006°25'1715.3
2017-Jul-13 19:54N 49°08' W 006°01'715.0
2017-Jul-13 19:25N 49°12' W 005°51'6214.7
2017-Jul-13 15:13N 49°35' W 004°24'515.0
2017-Jul-13 14:53N 49°37' W 004°17'615.2
2017-Jul-13 14:29N 49°39' W 004°08'815.3
2017-Jul-13 13:59N 49°42' W 003°57'715.4
2017-Jul-13 13:30N 49°44' W 003°46'815.1
2017-Jul-13 13:00N 49°47' W 003°35'714.7
2017-Jul-13 12:30N 49°50' W 003°25'714.0
2017-Jul-13 12:00N 49°53' W 003°15'713.4
2017-Jul-13 11:30N 49°56' W 003°06'713.2
2017-Jul-13 11:00N 49°59' W 002°57'612.9
2017-Jul-13 10:30N 50°00' W 002°47'612.6
2017-Jul-13 10:00N 50°02' W 002°38'612.3
2017-Jul-13 09:30N 50°04' W 002°28'612.3
2017-Jul-13 09:00N 50°05' W 002°19'612.7
2017-Jul-13 08:30N 50°06' W 002°09'713.1
2017-Jul-13 08:00N 50°08' W 001°59'714.0
2017-Jul-13 07:31N 50°10' W 001°49'714.9
2017-Jul-13 07:01N 50°13' W 001°38'815.8
2017-Jul-13 06:30N 50°15' W 001°26'816.6
2017-Jul-13 06:00N 50°17' W 001°14'917.5
2017-Jul-13 05:30N 50°19' W 001°01'917.6
2017-Jul-13 05:00N 50°22' W 000°47'917.2
2017-Jul-13 04:30N 50°24' W 000°34'816.9
2017-Jul-13 04:00N 50°26' W 000°22'816.2
2017-Jul-13 03:30N 50°29' W 000°09'815.8
2017-Jul-13 03:01N 50°31' E 000°03'815.5
2017-Jul-13 02:31N 50°33' E 000°14'815.0
2017-Jul-13 02:00N 50°35' E 000°26'714.3
2017-Jul-13 01:30N 50°37' E 000°37'714.0
2017-Jul-13 01:01N 50°41' E 000°46'713.8
2017-Jul-13 00:31N 50°45' E 000°55'713.8
2017-Jul-13 00:00N 50°49' E 001°04'714.0
2017-Jul-12 23:30N 50°53' E 001°13'814.9
2017-Jul-12 23:00N 50°58' E 001°22'816.8
2017-Jul-12 22:31N 51°04' E 001°31'917.6
2017-Jul-12 22:01N 51°10' E 001°41'917.1
2017-Jul-12 21:30N 51°17' E 001°49'816.5
2017-Jul-12 21:01N 51°24' E 001°57'713.9
2017-Jul-12 20:31N 51°23' E 002°08'714.7
2017-Jul-12 20:00N 51°20' E 002°19'815.7
2017-Jul-12 19:31N 51°23' E 002°30'815.3
2017-Jul-12 19:00N 51°22' E 002°43'714.5
2017-Jul-12 18:31N 51°23' E 002°54'714.5
2017-Jul-12 18:00N 51°24' E 003°06'815.1
2017-Jul-12 17:31N 51°25' E 003°18'815.1
2017-Jul-12 17:01N 51°25' E 003°30'612.3
2017-Jul-12 16:31N 51°27' E 003°39'612.6
2017-Jul-12 16:00N 51°22' E 003°46'611.4
2017-Jul-12 15:30N 51°22' E 003°55'510.3
2017-Jul-12 15:00N 51°26' E 004°01'8 8.2
2017-Jul-12 14:01N 51°23' E 004°13'4 7.2
2017-Jul-12 13:30N 51°21' E 004°17'0 0.0
2017-Jul-12 13:00N 51°21' E 004°17'0 0.0
2017-Jul-12 12:31N 51°21' E 004°17'0 0.0
2017-Jul-12 12:01N 51°21' E 004°17'1 2.1
2017-Jul-12 11:31N 51°22' E 004°18'0 0.2
2017-Jul-12 10:59N 51°22' E 004°18'0 0.0
2017-Jul-12 10:20N 51°22' E 004°18'0 0.0
2017-Jul-12 09:56N 51°22' E 004°18'0 0.0
2017-Jul-12 09:29N 51°22' E 004°18'0 0.0
2017-Jul-12 08:56N 51°22' E 004°18'0 0.0
2017-Jul-12 08:29N 51°22' E 004°18'0 0.0
2017-Jul-12 07:56N 51°22' E 004°18'0 0.0
2017-Jul-12 07:23N 51°22' E 004°18'0 0.0
2017-Jul-12 06:53N 51°22' E 004°18'0 0.0
2017-Jul-12 06:17N 51°22' E 004°18'0 0.0
2017-Jul-12 05:56N 51°22' E 004°18'0 0.0
2017-Jul-12 05:20N 51°22' E 004°18'0 0.0
2017-Jul-12 04:59N 51°22' E 004°18'0 0.0
2017-Jul-12 04:29N 51°22' E 004°18'0 0.0
2017-Jul-12 03:59N 51°22' E 004°18'0 0.0
2017-Jul-12 03:17N 51°22' E 004°18'0 0.0
2017-Jul-12 02:50N 51°22' E 004°18'0 0.0
2017-Jul-12 02:26N 51°22' E 004°18'0 0.0
2017-Jul-12 01:56N 51°22' E 004°18'0 0.0
2017-Jul-12 01:29N 51°22' E 004°18'0 0.0
2017-Jul-12 00:56N 51°22' E 004°18'0 0.0
2017-Jul-12 00:20N 51°22' E 004°18'0 0.0
2017-Jul-11 23:56N 51°22' E 004°18'0 0.0
2017-Jul-11 23:29N 51°22' E 004°18'0 0.0
2017-Jul-11 22:38N 51°22' E 004°18'0 0.0
2017-Jul-11 22:26N 51°22' E 004°18'0 0.0
2017-Jul-11 21:56N 51°22' E 004°18'0 0.0
2017-Jul-11 21:14N 51°22' E 004°18'0 0.0
2017-Jul-11 20:59N 51°22' E 004°18'0 0.0
2017-Jul-11 19:53N 51°22' E 004°18'0 0.0
2017-Jul-11 19:29N 51°22' E 004°18'0 0.0
2017-Jul-11 18:53N 51°22' E 004°18'0 0.0
2017-Jul-11 18:26N 51°22' E 004°18'0 0.0
2017-Jul-11 17:59N 51°22' E 004°18'0 0.0
2017-Jul-11 17:29N 51°22' E 004°18'0 0.0
2017-Jul-11 16:56N 51°22' E 004°18'0 0.0
2017-Jul-11 16:29N 51°22' E 004°18'0 0.0
2017-Jul-11 15:59N 51°22' E 004°18'0 0.0
2017-Jul-11 15:29N 51°22' E 004°18'0 0.0
2017-Jul-11 14:59N 51°22' E 004°18'0 0.0
2017-Jul-11 14:26N 51°22' E 004°18'0 0.0
2017-Jul-11 13:56N 51°22' E 004°18'0 0.0
2017-Jul-11 13:29N 51°22' E 004°18'0 0.0
2017-Jul-11 12:56N 51°22' E 004°18'0 0.0
2017-Jul-11 12:29N 51°22' E 004°18'0 0.0
2017-Jul-11 11:59N 51°22' E 004°18'0 0.0
2017-Jul-11 11:20N 51°22' E 004°18'0 0.0
2017-Jul-11 10:59N 51°22' E 004°18'0 0.0
2017-Jul-11 10:29N 51°22' E 004°18'0 0.0
2017-Jul-11 09:59N 51°22' E 004°18'0 0.0
2017-Jul-11 09:29N 51°22' E 004°18'0 0.0
2017-Jul-11 08:59N 51°22' E 004°18'0 0.0
2017-Jul-11 08:26N 51°22' E 004°18'0 0.0
2017-Jul-11 07:56N 51°22' E 004°18'0 0.0
2017-Jul-11 07:29N 51°22' E 004°18'0 0.0
2017-Jul-11 06:56N 51°22' E 004°18'0 0.0
2017-Jul-11 06:29N 51°22' E 004°18'0 0.0
2017-Jul-11 05:59N 51°22' E 004°18'0 0.0
2017-Jul-11 05:29N 51°22' E 004°18'0 0.0
2017-Jul-11 04:59N 51°22' E 004°18'0 0.0
2017-Jul-11 04:29N 51°22' E 004°18'0 0.0
2017-Jul-11 03:59N 51°22' E 004°18'0 0.0
2017-Jul-11 03:29N 51°22' E 004°18'0 0.0
2017-Jul-11 02:59N 51°22' E 004°18'0 0.0
2017-Jul-11 02:23N 51°22' E 004°18'0 0.0
2017-Jul-11 01:59N 51°22' E 004°18'0 0.0
2017-Jul-11 01:29N 51°22' E 004°18'0 0.0
2017-Jul-11 00:59N 51°22' E 004°18'0 0.0
2017-Jul-11 00:29N 51°22' E 004°18'0 0.0
2017-Jul-10 23:50N 51°22' E 004°18'0 0.0
2017-Jul-10 23:26N 51°22' E 004°18'0 0.0
2017-Jul-10 22:59N 51°22' E 004°18'0 0.0
2017-Jul-10 22:29N 51°22' E 004°18'0 0.0
2017-Jul-10 21:47N 51°22' E 004°18'0 0.3
2017-Jul-10 21:30N 51°22' E 004°18'1 1.8
2017-Jul-10 21:00N 51°21' E 004°17'0 0.0
2017-Jul-10 20:30N 51°21' E 004°17'0 0.0
2017-Jul-10 20:01N 51°21' E 004°17'2 3.1
2017-Jul-10 19:30N 51°21' E 004°15'4 7.3
2017-Jul-10 19:00N 51°23' E 004°10'5 9.4
2017-Jul-10 18:30N 51°23' E 004°03'4 7.5
2017-Jul-10 18:00N 51°25' E 003°58'510.5
2017-Jul-10 17:30N 51°21' E 003°53'510.9
2017-Jul-10 17:00N 51°22' E 003°45'511.0
2017-Jul-10 16:30N 51°26' E 003°39'5 9.0
2017-Jul-10 16:00N 51°25' E 003°32'613.0
2017-Jul-10 15:30N 51°24' E 003°22'714.6
2017-Jul-10 15:00N 51°24' E 003°10'714.6
2017-Jul-10 14:30N 51°25' E 002°58'714.4
2017-Jul-10 14:00N 51°24' E 002°47'4 7.8
2017-Jul-10 13:31N 51°24' E 002°41'3 6.4
2017-Jul-10 13:01N 51°27' E 002°41'1 1.0
2017-Jul-10 12:28N 51°27' E 002°41'0 0.0
2017-Jul-10 11:58N 51°27' E 002°41'0 0.0
2017-Jul-10 11:28N 51°27' E 002°41'0 0.3
2017-Jul-10 11:01N 51°27' E 002°41'0 0.2
2017-Jul-10 10:31N 51°27' E 002°41'0 0.1
2017-Jul-10 10:01N 51°27' E 002°41'0 0.1
2017-Jul-10 09:25N 51°27' E 002°41'0 0.1
2017-Jul-10 08:58N 51°27' E 002°41'0 0.0
2017-Jul-10 08:28N 51°27' E 002°41'0 0.0
2017-Jul-10 08:01N 51°27' E 002°41'0 0.0
2017-Jul-10 07:31N 51°27' E 002°41'0 0.0
2017-Jul-10 06:58N 51°27' E 002°41'0 0.1
2017-Jul-10 06:28N 51°27' E 002°41'0 0.1
2017-Jul-10 06:01N 51°27' E 002°41'0 0.1
2017-Jul-10 05:27N 51°27' E 002°41'0 0.1
2017-Jul-10 05:01N 51°27' E 002°41'0 0.1
2017-Jul-10 04:27N 51°27' E 002°41'0 0.0
2017-Jul-10 03:58N 51°27' E 002°41'0 0.0
2017-Jul-10 03:28N 51°27' E 002°41'0 0.0
2017-Jul-10 02:58N 51°27' E 002°41'0 0.0
2017-Jul-10 02:31N 51°27' E 002°41'0 0.0
2017-Jul-10 01:58N 51°27' E 002°41'0 0.0
2017-Jul-10 01:31N 51°27' E 002°41'0 0.0
2017-Jul-10 01:01N 51°27' E 002°41'0 0.0
2017-Jul-10 00:28N 51°27' E 002°41'0 0.1
2017-Jul-09 23:58N 51°27' E 002°41'0 0.3
2017-Jul-09 23:30N 51°27' E 002°41'0 0.2
2017-Jul-09 23:01N 51°27' E 002°41'0 0.0
2017-Jul-09 22:31N 51°27' E 002°41'0 0.0
2017-Jul-09 21:58N 51°27' E 002°41'0 0.0
2017-Jul-09 21:31N 51°27' E 002°41'0 0.0
2017-Jul-09 21:01N 51°27' E 002°41'0 0.0
2017-Jul-09 20:31N 51°27' E 002°41'0 0.0
2017-Jul-09 20:01N 51°27' E 002°41'0 0.0
2017-Jul-09 19:28N 51°27' E 002°41'0 0.1
2017-Jul-09 18:58N 51°27' E 002°41'0 0.0
2017-Jul-09 18:27N 51°27' E 002°41'0 0.0
2017-Jul-09 18:01N 51°27' E 002°41'0 0.0
2017-Jul-09 17:28N 51°27' E 002°41'0 0.1
2017-Jul-09 16:58N 51°27' E 002°41'0 0.2
2017-Jul-09 16:31N 51°27' E 002°41'0 0.0
2017-Jul-09 16:01N 51°27' E 002°41'0 0.1
2017-Jul-09 15:28N 51°27' E 002°41'0 0.0
2017-Jul-09 14:58N 51°27' E 002°41'0 0.0
2017-Jul-09 14:31N 51°27' E 002°41'0 0.0
2017-Jul-09 13:57N 51°27' E 002°41'0 0.0
2017-Jul-09 13:31N 51°27' E 002°41'0 0.0
2017-Jul-09 13:01N 51°27' E 002°41'0 0.0
2017-Jul-09 12:31N 51°27' E 002°41'0 0.0
2017-Jul-09 12:00N 51°27' E 002°41'0 0.1
2017-Jul-09 11:31N 51°27' E 002°41'0 0.2
2017-Jul-09 11:00N 51°27' E 002°41'0 0.1
2017-Jul-09 10:31N 51°27' E 002°41'0 0.0
2017-Jul-09 10:01N 51°27' E 002°41'0 0.0
2017-Jul-09 09:31N 51°27' E 002°41'0 0.0
2017-Jul-09 08:58N 51°27' E 002°41'0 0.0
2017-Jul-09 08:28N 51°27' E 002°41'0 0.0
2017-Jul-09 07:58N 51°27' E 002°41'0 0.0
2017-Jul-09 07:28N 51°27' E 002°41'0 0.0
2017-Jul-09 07:01N 51°27' E 002°41'0 0.0
2017-Jul-09 06:28N 51°27' E 002°41'0 0.1
2017-Jul-09 06:01N 51°27' E 002°41'0 0.1
2017-Jul-09 05:31N 51°27' E 002°41'0 0.0
2017-Jul-09 05:00N 51°27' E 002°41'0 0.1
2017-Jul-09 04:28N 51°27' E 002°41'0 0.1
2017-Jul-09 04:01N 51°27' E 002°41'0 0.0
2017-Jul-09 03:28N 51°27' E 002°41'0 0.0
2017-Jul-09 02:58N 51°27' E 002°41'0 0.0
2017-Jul-09 02:28N 51°27' E 002°41'0 0.0
2017-Jul-09 02:01N 51°27' E 002°41'0 0.0
2017-Jul-09 01:28N 51°27' E 002°41'0 0.0
2017-Jul-09 01:01N 51°27' E 002°41'0 0.0
2017-Jul-09 00:28N 51°27' E 002°41'0 0.0
2017-Jul-08 23:58N 51°27' E 002°41'0 0.1
2017-Jul-08 23:31N 51°27' E 002°41'0 0.2
2017-Jul-08 23:01N 51°27' E 002°41'0 0.2
2017-Jul-08 22:31N 51°27' E 002°41'0 0.0
2017-Jul-08 21:57N 51°27' E 002°41'0 0.0
2017-Jul-08 21:28N 51°27' E 002°41'0 0.0
2017-Jul-08 20:58N 51°27' E 002°41'0 0.0
2017-Jul-08 20:31N 51°27' E 002°41'0 0.0
2017-Jul-08 20:01N 51°27' E 002°41'0 0.0
2017-Jul-08 19:28N 51°27' E 002°41'0 0.0
2017-Jul-08 19:01N 51°27' E 002°41'0 0.0
2017-Jul-08 18:28N 51°27' E 002°41'0 0.0
2017-Jul-08 17:57N 51°27' E 002°41'0 0.0
2017-Jul-08 17:31N 51°27' E 002°41'0 0.0
2017-Jul-08 17:00N 51°27' E 002°41'0 0.1
2017-Jul-08 16:28N 51°27' E 002°41'0 0.2
2017-Jul-08 16:01N 51°27' E 002°41'0 0.1
2017-Jul-08 15:28N 51°27' E 002°41'0 0.0
2017-Jul-08 14:55N 51°27' E 002°41'0 0.0
2017-Jul-08 13:58N 51°27' E 002°41'0 0.0
2017-Jul-08 13:31N 51°27' E 002°41'0 0.0
2017-Jul-08 12:58N 51°27' E 002°41'0 0.0
2017-Jul-08 12:31N 51°27' E 002°41'0 0.0
2017-Jul-08 11:58N 51°27' E 002°41'0 0.1
2017-Jul-08 11:28N 51°27' E 002°41'0 0.2
2017-Jul-08 10:58N 51°27' E 002°41'0 0.1
2017-Jul-08 10:31N 51°27' E 002°41'0 0.1
2017-Jul-08 09:58N 51°27' E 002°41'0 0.1
2017-Jul-08 09:31N 51°27' E 002°41'0 0.1
2017-Jul-08 08:58N 51°27' E 002°41'0 0.0
2017-Jul-08 08:28N 51°27' E 002°41'0 0.0
2017-Jul-08 08:01N 51°27' E 002°41'0 0.0
2017-Jul-08 07:25N 51°27' E 002°41'0 0.0
2017-Jul-08 06:58N 51°27' E 002°41'0 0.0
2017-Jul-08 06:31N 51°27' E 002°41'0 0.1
2017-Jul-08 06:01N 51°27' E 002°41'0 0.1
2017-Jul-08 05:25N 51°27' E 002°41'0 0.1
2017-Jul-08 05:01N 51°27' E 002°41'0 0.2
2017-Jul-08 04:30N 51°27' E 002°41'0 0.2
2017-Jul-08 03:58N 51°27' E 002°41'0 0.1
2017-Jul-08 03:28N 51°27' E 002°41'0 0.0
2017-Jul-08 02:58N 51°27' E 002°41'0 0.0
2017-Jul-08 02:31N 51°27' E 002°41'0 0.0
2017-Jul-08 01:58N 51°27' E 002°41'0 0.0
2017-Jul-08 01:31N 51°27' E 002°41'0 0.0
2017-Jul-08 00:58N 51°27' E 002°41'0 0.0
2017-Jul-08 00:31N 51°27' E 002°41'0 0.0
2017-Jul-07 23:58N 51°27' E 002°41'0 0.0
2017-Jul-07 23:31N 51°27' E 002°41'0 0.0
2017-Jul-07 23:01N 51°27' E 002°41'0 0.0
2017-Jul-07 22:31N 51°27' E 002°41'0 0.0
2017-Jul-07 22:01N 51°27' E 002°41'0 0.2
2017-Jul-07 21:31N 51°27' E 002°41'0 0.2
2017-Jul-07 21:01N 51°27' E 002°41'0 0.1
2017-Jul-07 20:28N 51°27' E 002°41'0 0.0
2017-Jul-07 19:58N 51°27' E 002°41'0 0.0
2017-Jul-07 19:31N 51°27' E 002°41'0 0.0
2017-Jul-07 19:00N 51°27' E 002°41'0 0.1
2017-Jul-07 18:28N 51°27' E 002°41'0 0.1
2017-Jul-07 18:00N 51°27' E 002°41'0 0.1
2017-Jul-07 17:28N 51°27' E 002°41'0 0.1
2017-Jul-07 17:01N 51°27' E 002°41'0 0.2
2017-Jul-07 16:28N 51°27' E 002°41'0 0.1
2017-Jul-07 16:01N 51°27' E 002°41'0 0.0
2017-Jul-07 15:30N 51°27' E 002°41'0 0.0
2017-Jul-07 15:01N 51°27' E 002°41'0 0.0
2017-Jul-07 13:58N 51°27' E 002°41'0 0.0
2017-Jul-07 13:31N 51°27' E 002°41'0 0.0
2017-Jul-07 13:00N 51°27' E 002°41'0 0.0
2017-Jul-07 12:31N 51°27' E 002°41'0 0.0
2017-Jul-07 12:01N 51°27' E 002°41'0 0.0
2017-Jul-07 11:28N 51°27' E 002°41'0 0.1
2017-Jul-07 10:57N 51°27' E 002°41'0 0.1
2017-Jul-07 10:31N 51°27' E 002°41'0 0.1
2017-Jul-07 10:01N 51°27' E 002°41'0 0.1
2017-Jul-07 09:31N 51°27' E 002°41'0 0.2
2017-Jul-07 08:58N 51°27' E 002°41'0 0.1
2017-Jul-07 08:28N 51°27' E 002°41'0 0.0
2017-Jul-07 08:01N 51°27' E 002°41'0 0.0
2017-Jul-07 07:28N 51°27' E 002°41'0 0.0
2017-Jul-07 07:01N 51°27' E 002°41'0 0.0
2017-Jul-07 06:25N 51°27' E 002°41'0 0.0
2017-Jul-07 05:58N 51°27' E 002°41'0 0.0
2017-Jul-07 05:31N 51°27' E 002°41'0 0.1
2017-Jul-07 05:01N 51°27' E 002°41'0 0.3
2017-Jul-07 04:28N 51°27' E 002°41'0 0.1
2017-Jul-07 04:01N 51°27' E 002°41'0 0.1
2017-Jul-07 03:27N 51°27' E 002°41'0 0.0
2017-Jul-07 02:58N 51°27' E 002°41'0 0.0
2017-Jul-07 02:28N 51°27' E 002°41'0 0.0
2017-Jul-07 02:01N 51°27' E 002°41'0 0.0
2017-Jul-07 01:28N 51°27' E 002°41'0 0.0
2017-Jul-07 01:01N 51°27' E 002°41'0 0.0
2017-Jul-07 00:30N 51°27' E 002°41'0 0.0
2017-Jul-06 23:58N 51°27' E 002°41'0 0.0
2017-Jul-06 23:30N 51°27' E 002°41'0 0.0
2017-Jul-06 23:16N 51°27' E 002°41'353 9.1
2017-Jul-05 08:31N 48°50' W 005°31'611.3
2017-Jul-05 08:01N 48°46' W 005°38'611.1
2017-Jul-05 07:30N 48°41' W 005°41'510.9
2017-Jul-05 07:01N 48°36' W 005°45'510.4
2017-Jul-05 06:31N 48°33' W 005°51'510.3
2017-Jul-05 06:01N 48°29' W 005°57'510.4
2017-Jul-05 05:31N 48°26' W 006°03'510.3
2017-Jul-05 05:01N 48°23' W 006°09'510.5
2017-Jul-05 04:31N 48°19' W 006°15'510.9
2017-Jul-05 04:01N 48°16' W 006°21'510.8
2017-Jul-05 03:30N 48°12' W 006°27'13711.9
2017-Jul-04 15:59N 46°43' W 009°02'  
Track history (hours):
 
Tides and Currents Weather Stations Pressure Air Temp Water Temp Dewpoint Dewpoint Depression Visibility Wind Speed Wind Dir Waves Ship Positions

Sanko Independence

Last reported at 2017-Jul-13 21:45 UTC. Time now 2017-Jul-23 12:39 UTC.
Position N 48°57' W 006°42'.
Warning: this ship's position is 9 days out of date.

Length 174 m; draft 7.8 m.

Type: Ship (hazmat cat B). MMSI: 636013946.

Date/timePositionNaut miles runAvg speedWind from/ knotsBaromVisibWave heightAir tempDewpointWater temp
2017-Jul-13 21:45N 48°57' W 006°42'816.0
2017-Jul-13 21:15N 49°00' W 006°30'415.8
2017-Jul-13 21:00N 49°02' W 006°25'1715.3
2017-Jul-13 19:54N 49°08' W 006°01'715.0
2017-Jul-13 19:25N 49°12' W 005°51'6214.7
2017-Jul-13 15:13N 49°35' W 004°24'515.0
2017-Jul-13 14:53N 49°37' W 004°17'615.2
2017-Jul-13 14:29N 49°39' W 004°08'815.3
2017-Jul-13 13:59N 49°42' W 003°57'715.4
2017-Jul-13 13:30N 49°44' W 003°46'815.1
2017-Jul-13 13:00N 49°47' W 003°35'714.7
2017-Jul-13 12:30N 49°50' W 003°25'714.0
2017-Jul-13 12:00N 49°53' W 003°15'713.4
2017-Jul-13 11:30N 49°56' W 003°06'713.2
2017-Jul-13 11:00N 49°59' W 002°57'612.9
2017-Jul-13 10:30N 50°00' W 002°47'612.6
2017-Jul-13 10:00N 50°02' W 002°38'612.3
2017-Jul-13 09:30N 50°04' W 002°28'612.3
2017-Jul-13 09:00N 50°05' W 002°19'612.7
2017-Jul-13 08:30N 50°06' W 002°09'713.1
2017-Jul-13 08:00N 50°08' W 001°59'714.0
2017-Jul-13 07:31N 50°10' W 001°49'714.9
2017-Jul-13 07:01N 50°13' W 001°38'815.8
2017-Jul-13 06:30N 50°15' W 001°26'816.6
2017-Jul-13 06:00N 50°17' W 001°14'917.5
2017-Jul-13 05:30N 50°19' W 001°01'917.6
2017-Jul-13 05:00N 50°22' W 000°47'917.2
2017-Jul-13 04:30N 50°24' W 000°34'816.9
2017-Jul-13 04:00N 50°26' W 000°22'816.2
2017-Jul-13 03:30N 50°29' W 000°09'815.8
2017-Jul-13 03:01N 50°31' E 000°03'815.5
2017-Jul-13 02:31N 50°33' E 000°14'815.0
2017-Jul-13 02:00N 50°35' E 000°26'714.3
2017-Jul-13 01:30N 50°37' E 000°37'714.0
2017-Jul-13 01:01N 50°41' E 000°46'713.8
2017-Jul-13 00:31N 50°45' E 000°55'713.8
2017-Jul-13 00:00N 50°49' E 001°04'714.0
2017-Jul-12 23:30N 50°53' E 001°13'814.9
2017-Jul-12 23:00N 50°58' E 001°22'816.8
2017-Jul-12 22:31N 51°04' E 001°31'917.6
2017-Jul-12 22:01N 51°10' E 001°41'917.1
2017-Jul-12 21:30N 51°17' E 001°49'816.5
2017-Jul-12 21:01N 51°24' E 001°57'713.9
2017-Jul-12 20:31N 51°23' E 002°08'714.7
2017-Jul-12 20:00N 51°20' E 002°19'815.7
2017-Jul-12 19:31N 51°23' E 002°30'815.3
2017-Jul-12 19:00N 51°22' E 002°43'714.5
2017-Jul-12 18:31N 51°23' E 002°54'714.5
2017-Jul-12 18:00N 51°24' E 003°06'815.1
2017-Jul-12 17:31N 51°25' E 003°18'815.1
2017-Jul-12 17:01N 51°25' E 003°30'612.3
2017-Jul-12 16:31N 51°27' E 003°39'612.6
2017-Jul-12 16:00N 51°22' E 003°46'611.4
2017-Jul-12 15:30N 51°22' E 003°55'510.3
2017-Jul-12 15:00N 51°26' E 004°01'8 8.2
2017-Jul-12 14:01N 51°23' E 004°13'4 7.2
2017-Jul-12 13:30N 51°21' E 004°17'0 0.0
2017-Jul-12 13:00N 51°21' E 004°17'0 0.0
2017-Jul-12 12:31N 51°21' E 004°17'0 0.0
2017-Jul-12 12:01N 51°21' E 004°17'1 2.1
2017-Jul-12 11:31N 51°22' E 004°18'0 0.2
2017-Jul-12 10:59N 51°22' E 004°18'0 0.0
2017-Jul-12 10:20N 51°22' E 004°18'0 0.0
2017-Jul-12 09:56N 51°22' E 004°18'0 0.0
2017-Jul-12 09:29N 51°22' E 004°18'0 0.0
2017-Jul-12 08:56N 51°22' E 004°18'0 0.0
2017-Jul-12 08:29N 51°22' E 004°18'0 0.0
2017-Jul-12 07:56N 51°22' E 004°18'0 0.0
2017-Jul-12 07:23N 51°22' E 004°18'0 0.0
2017-Jul-12 06:53N 51°22' E 004°18'0 0.0
2017-Jul-12 06:17N 51°22' E 004°18'0 0.0
2017-Jul-12 05:56N 51°22' E 004°18'0 0.0
2017-Jul-12 05:20N 51°22' E 004°18'0 0.0
2017-Jul-12 04:59N 51°22' E 004°18'0 0.0
2017-Jul-12 04:29N 51°22' E 004°18'0 0.0
2017-Jul-12 03:59N 51°22' E 004°18'0 0.0
2017-Jul-12 03:17N 51°22' E 004°18'0 0.0
2017-Jul-12 02:50N 51°22' E 004°18'0 0.0
2017-Jul-12 02:26N 51°22' E 004°18'0 0.0
2017-Jul-12 01:56N 51°22' E 004°18'0 0.0
2017-Jul-12 01:29N 51°22' E 004°18'0 0.0
2017-Jul-12 00:56N 51°22' E 004°18'0 0.0
2017-Jul-12 00:20N 51°22' E 004°18'0 0.0
2017-Jul-11 23:56N 51°22' E 004°18'0 0.0
2017-Jul-11 23:29N 51°22' E 004°18'0 0.0
2017-Jul-11 22:38N 51°22' E 004°18'0 0.0
2017-Jul-11 22:26N 51°22' E 004°18'0 0.0
2017-Jul-11 21:56N 51°22' E 004°18'0 0.0
2017-Jul-11 21:14N 51°22' E 004°18'0 0.0
2017-Jul-11 20:59N 51°22' E 004°18'0 0.0
2017-Jul-11 19:53N 51°22' E 004°18'0 0.0
2017-Jul-11 19:29N 51°22' E 004°18'0 0.0
2017-Jul-11 18:53N 51°22' E 004°18'0 0.0
2017-Jul-11 18:26N 51°22' E 004°18'0 0.0
2017-Jul-11 17:59N 51°22' E 004°18'0 0.0
2017-Jul-11 17:29N 51°22' E 004°18'0 0.0
2017-Jul-11 16:56N 51°22' E 004°18'0 0.0
2017-Jul-11 16:29N 51°22' E 004°18'0 0.0
2017-Jul-11 15:59N 51°22' E 004°18'0 0.0
2017-Jul-11 15:29N 51°22' E 004°18'0 0.0
2017-Jul-11 14:59N 51°22' E 004°18'0 0.0
2017-Jul-11 14:26N 51°22' E 004°18'0 0.0
2017-Jul-11 13:56N 51°22' E 004°18'0 0.0
2017-Jul-11 13:29N 51°22' E 004°18'0 0.0
2017-Jul-11 12:56N 51°22' E 004°18'0 0.0
2017-Jul-11 12:29N 51°22' E 004°18'0 0.0
2017-Jul-11 11:59N 51°22' E 004°18'0 0.0
2017-Jul-11 11:20N 51°22' E 004°18'0 0.0
2017-Jul-11 10:59N 51°22' E 004°18'0 0.0
2017-Jul-11 10:29N 51°22' E 004°18'0 0.0
2017-Jul-11 09:59N 51°22' E 004°18'0 0.0
2017-Jul-11 09:29N 51°22' E 004°18'0 0.0
2017-Jul-11 08:59N 51°22' E 004°18'0 0.0
2017-Jul-11 08:26N 51°22' E 004°18'0 0.0
2017-Jul-11 07:56N 51°22' E 004°18'0 0.0
2017-Jul-11 07:29N 51°22' E 004°18'0 0.0
2017-Jul-11 06:56N 51°22' E 004°18'0 0.0
2017-Jul-11 06:29N 51°22' E 004°18'0 0.0
2017-Jul-11 05:59N 51°22' E 004°18'0 0.0
2017-Jul-11 05:29N 51°22' E 004°18'0 0.0
2017-Jul-11 04:59N 51°22' E 004°18'0 0.0
2017-Jul-11 04:29N 51°22' E 004°18'0 0.0
2017-Jul-11 03:59N 51°22' E 004°18'0 0.0
2017-Jul-11 03:29N 51°22' E 004°18'0 0.0
2017-Jul-11 02:59N 51°22' E 004°18'0 0.0
2017-Jul-11 02:23N 51°22' E 004°18'0 0.0
2017-Jul-11 01:59N 51°22' E 004°18'0 0.0
2017-Jul-11 01:29N 51°22' E 004°18'0 0.0
2017-Jul-11 00:59N 51°22' E 004°18'0 0.0
2017-Jul-11 00:29N 51°22' E 004°18'0 0.0
2017-Jul-10 23:50N 51°22' E 004°18'0 0.0
2017-Jul-10 23:26N 51°22' E 004°18'0 0.0
2017-Jul-10 22:59N 51°22' E 004°18'0 0.0
2017-Jul-10 22:29N 51°22' E 004°18'0 0.0
2017-Jul-10 21:47N 51°22' E 004°18'0 0.3
2017-Jul-10 21:30N 51°22' E 004°18'1 1.8
2017-Jul-10 21:00N 51°21' E 004°17'0 0.0
2017-Jul-10 20:30N 51°21' E 004°17'0 0.0
2017-Jul-10 20:01N 51°21' E 004°17'2 3.1
2017-Jul-10 19:30N 51°21' E 004°15'4 7.3
2017-Jul-10 19:00N 51°23' E 004°10'5 9.4
2017-Jul-10 18:30N 51°23' E 004°03'4 7.5
2017-Jul-10 18:00N 51°25' E 003°58'510.5
2017-Jul-10 17:30N 51°21' E 003°53'510.9
2017-Jul-10 17:00N 51°22' E 003°45'511.0
2017-Jul-10 16:30N 51°26' E 003°39'5 9.0
2017-Jul-10 16:00N 51°25' E 003°32'613.0
2017-Jul-10 15:30N 51°24' E 003°22'714.6
2017-Jul-10 15:00N 51°24' E 003°10'714.6
2017-Jul-10 14:30N 51°25' E 002°58'714.4
2017-Jul-10 14:00N 51°24' E 002°47'4 7.8
2017-Jul-10 13:31N 51°24' E 002°41'3 6.4
2017-Jul-10 13:01N 51°27' E 002°41'1 1.0
2017-Jul-10 12:28N 51°27' E 002°41'0 0.0
2017-Jul-10 11:58N 51°27' E 002°41'0 0.0
2017-Jul-10 11:28N 51°27' E 002°41'0 0.3
2017-Jul-10 11:01N 51°27' E 002°41'0 0.2
2017-Jul-10 10:31N 51°27' E 002°41'0 0.1
2017-Jul-10 10:01N 51°27' E 002°41'0 0.1
2017-Jul-10 09:25N 51°27' E 002°41'0 0.1
2017-Jul-10 08:58N 51°27' E 002°41'0 0.0
2017-Jul-10 08:28N 51°27' E 002°41'0 0.0
2017-Jul-10 08:01N 51°27' E 002°41'0 0.0
2017-Jul-10 07:31N 51°27' E 002°41'0 0.0
2017-Jul-10 06:58N 51°27' E 002°41'0 0.1
2017-Jul-10 06:28N 51°27' E 002°41'0 0.1
2017-Jul-10 06:01N 51°27' E 002°41'0 0.1
2017-Jul-10 05:27N 51°27' E 002°41'0 0.1
2017-Jul-10 05:01N 51°27' E 002°41'0 0.1
2017-Jul-10 04:27N 51°27' E 002°41'0 0.0
2017-Jul-10 03:58N 51°27' E 002°41'0 0.0
2017-Jul-10 03:28N 51°27' E 002°41'0 0.0
2017-Jul-10 02:58N 51°27' E 002°41'0 0.0
2017-Jul-10 02:31N 51°27' E 002°41'0 0.0
2017-Jul-10 01:58N 51°27' E 002°41'0 0.0
2017-Jul-10 01:31N 51°27' E 002°41'0 0.0
2017-Jul-10 01:01N 51°27' E 002°41'0 0.0
2017-Jul-10 00:28N 51°27' E 002°41'0 0.1
2017-Jul-09 23:58N 51°27' E 002°41'0 0.3
2017-Jul-09 23:30N 51°27' E 002°41'0 0.2
2017-Jul-09 23:01N 51°27' E 002°41'0 0.0
2017-Jul-09 22:31N 51°27' E 002°41'0 0.0
2017-Jul-09 21:58N 51°27' E 002°41'0 0.0
2017-Jul-09 21:31N 51°27' E 002°41'0 0.0
2017-Jul-09 21:01N 51°27' E 002°41'0 0.0
2017-Jul-09 20:31N 51°27' E 002°41'0 0.0
2017-Jul-09 20:01N 51°27' E 002°41'0 0.0
2017-Jul-09 19:28N 51°27' E 002°41'0 0.1
2017-Jul-09 18:58N 51°27' E 002°41'0 0.0
2017-Jul-09 18:27N 51°27' E 002°41'0 0.0
2017-Jul-09 18:01N 51°27' E 002°41'0 0.0
2017-Jul-09 17:28N 51°27' E 002°41'0 0.1
2017-Jul-09 16:58N 51°27' E 002°41'0 0.2
2017-Jul-09 16:31N 51°27' E 002°41'0 0.0
2017-Jul-09 16:01N 51°27' E 002°41'0 0.1
2017-Jul-09 15:28N 51°27' E 002°41'0 0.0
2017-Jul-09 14:58N 51°27' E 002°41'0 0.0
2017-Jul-09 14:31N 51°27' E 002°41'0 0.0
2017-Jul-09 13:57N 51°27' E 002°41'0 0.0
2017-Jul-09 13:31N 51°27' E 002°41'0 0.0
2017-Jul-09 13:01N 51°27' E 002°41'0 0.0
2017-Jul-09 12:31N 51°27' E 002°41'0 0.0
2017-Jul-09 12:00N 51°27' E 002°41'0 0.1
2017-Jul-09 11:31N 51°27' E 002°41'0 0.2
2017-Jul-09 11:00N 51°27' E 002°41'0 0.1
2017-Jul-09 10:31N 51°27' E 002°41'0 0.0
2017-Jul-09 10:01N 51°27' E 002°41'0 0.0
2017-Jul-09 09:31N 51°27' E 002°41'0 0.0
2017-Jul-09 08:58N 51°27' E 002°41'0 0.0
2017-Jul-09 08:28N 51°27' E 002°41'0 0.0
2017-Jul-09 07:58N 51°27' E 002°41'0 0.0
2017-Jul-09 07:28N 51°27' E 002°41'0 0.0
2017-Jul-09 07:01N 51°27' E 002°41'0 0.0
2017-Jul-09 06:28N 51°27' E 002°41'0 0.1
2017-Jul-09 06:01N 51°27' E 002°41'0 0.1
2017-Jul-09 05:31N 51°27' E 002°41'0 0.0
2017-Jul-09 05:00N 51°27' E 002°41'0 0.1
2017-Jul-09 04:28N 51°27' E 002°41'0 0.1
2017-Jul-09 04:01N 51°27' E 002°41'0 0.0
2017-Jul-09 03:28N 51°27' E 002°41'0 0.0
2017-Jul-09 02:58N 51°27' E 002°41'0 0.0
2017-Jul-09 02:28N 51°27' E 002°41'0 0.0
2017-Jul-09 02:01N 51°27' E 002°41'0 0.0
2017-Jul-09 01:28N 51°27' E 002°41'0 0.0
2017-Jul-09 01:01N 51°27' E 002°41'0 0.0
2017-Jul-09 00:28N 51°27' E 002°41'0 0.0
2017-Jul-08 23:58N 51°27' E 002°41'0 0.1
2017-Jul-08 23:31N 51°27' E 002°41'0 0.2
2017-Jul-08 23:01N 51°27' E 002°41'0 0.2
2017-Jul-08 22:31N 51°27' E 002°41'0 0.0
2017-Jul-08 21:57N 51°27' E 002°41'0 0.0
2017-Jul-08 21:28N 51°27' E 002°41'0 0.0
2017-Jul-08 20:58N 51°27' E 002°41'0 0.0
2017-Jul-08 20:31N 51°27' E 002°41'0 0.0
2017-Jul-08 20:01N 51°27' E 002°41'0 0.0
2017-Jul-08 19:28N 51°27' E 002°41'0 0.0
2017-Jul-08 19:01N 51°27' E 002°41'0 0.0
2017-Jul-08 18:28N 51°27' E 002°41'0 0.0
2017-Jul-08 17:57N 51°27' E 002°41'0 0.0
2017-Jul-08 17:31N 51°27' E 002°41'0 0.0
2017-Jul-08 17:00N 51°27' E 002°41'0 0.1
2017-Jul-08 16:28N 51°27' E 002°41'0 0.2
2017-Jul-08 16:01N 51°27' E 002°41'0 0.1
2017-Jul-08 15:28N 51°27' E 002°41'0 0.0
2017-Jul-08 14:55N 51°27' E 002°41'0 0.0
2017-Jul-08 13:58N 51°27' E 002°41'0 0.0
2017-Jul-08 13:31N 51°27' E 002°41'0 0.0
2017-Jul-08 12:58N 51°27' E 002°41'0 0.0
2017-Jul-08 12:31N 51°27' E 002°41'0 0.0
2017-Jul-08 11:58N 51°27' E 002°41'0 0.1
2017-Jul-08 11:28N 51°27' E 002°41'0 0.2
2017-Jul-08 10:58N 51°27' E 002°41'0 0.1
2017-Jul-08 10:31N 51°27' E 002°41'0 0.1
2017-Jul-08 09:58N 51°27' E 002°41'0 0.1
2017-Jul-08 09:31N 51°27' E 002°41'0 0.1
2017-Jul-08 08:58N 51°27' E 002°41'0 0.0
2017-Jul-08 08:28N 51°27' E 002°41'0 0.0
2017-Jul-08 08:01N 51°27' E 002°41'0 0.0
2017-Jul-08 07:25N 51°27' E 002°41'0 0.0
2017-Jul-08 06:58N 51°27' E 002°41'0 0.0
2017-Jul-08 06:31N 51°27' E 002°41'0 0.1
2017-Jul-08 06:01N 51°27' E 002°41'0 0.1
2017-Jul-08 05:25N 51°27' E 002°41'0 0.1
2017-Jul-08 05:01N 51°27' E 002°41'0 0.2
2017-Jul-08 04:30N 51°27' E 002°41'0 0.2
2017-Jul-08 03:58N 51°27' E 002°41'0 0.1
2017-Jul-08 03:28N 51°27' E 002°41'0 0.0
2017-Jul-08 02:58N 51°27' E 002°41'0 0.0
2017-Jul-08 02:31N 51°27' E 002°41'0 0.0
2017-Jul-08 01:58N 51°27' E 002°41'0 0.0
2017-Jul-08 01:31N 51°27' E 002°41'0 0.0
2017-Jul-08 00:58N 51°27' E 002°41'0 0.0
2017-Jul-08 00:31N 51°27' E 002°41'0 0.0
2017-Jul-07 23:58N 51°27' E 002°41'0 0.0
2017-Jul-07 23:31N 51°27' E 002°41'0 0.0
2017-Jul-07 23:01N 51°27' E 002°41'0 0.0
2017-Jul-07 22:31N 51°27' E 002°41'0 0.0
2017-Jul-07 22:01N 51°27' E 002°41'0 0.2
2017-Jul-07 21:31N 51°27' E 002°41'0 0.2
2017-Jul-07 21:01N 51°27' E 002°41'0 0.1
2017-Jul-07 20:28N 51°27' E 002°41'0 0.0
2017-Jul-07 19:58N 51°27' E 002°41'0 0.0
2017-Jul-07 19:31N 51°27' E 002°41'0 0.0
2017-Jul-07 19:00N 51°27' E 002°41'0 0.1
2017-Jul-07 18:28N 51°27' E 002°41'0 0.1
2017-Jul-07 18:00N 51°27' E 002°41'0 0.1
2017-Jul-07 17:28N 51°27' E 002°41'0 0.1
2017-Jul-07 17:01N 51°27' E 002°41'0 0.2
2017-Jul-07 16:28N 51°27' E 002°41'0 0.1
2017-Jul-07 16:01N 51°27' E 002°41'0 0.0
2017-Jul-07 15:30N 51°27' E 002°41'0 0.0
2017-Jul-07 15:01N 51°27' E 002°41'0 0.0
2017-Jul-07 13:58N 51°27' E 002°41'0 0.0
2017-Jul-07 13:31N 51°27' E 002°41'0 0.0
2017-Jul-07 13:00N 51°27' E 002°41'0 0.0
2017-Jul-07 12:31N 51°27' E 002°41'0 0.0
2017-Jul-07 12:01N 51°27' E 002°41'0 0.0
2017-Jul-07 11:28N 51°27' E 002°41'0 0.1
2017-Jul-07 10:57N 51°27' E 002°41'0 0.1
2017-Jul-07 10:31N 51°27' E 002°41'0 0.1
2017-Jul-07 10:01N 51°27' E 002°41'0 0.1
2017-Jul-07 09:31N 51°27' E 002°41'0 0.2
2017-Jul-07 08:58N 51°27' E 002°41'0 0.1
2017-Jul-07 08:28N 51°27' E 002°41'0 0.0
2017-Jul-07 08:01N 51°27' E 002°41'0 0.0
2017-Jul-07 07:28N 51°27' E 002°41'0 0.0
2017-Jul-07 07:01N 51°27' E 002°41'0 0.0
2017-Jul-07 06:25N 51°27' E 002°41'0 0.0
2017-Jul-07 05:58N 51°27' E 002°41'0 0.0
2017-Jul-07 05:31N 51°27' E 002°41'0 0.1
2017-Jul-07 05:01N 51°27' E 002°41'0 0.3
2017-Jul-07 04:28N 51°27' E 002°41'0 0.1
2017-Jul-07 04:01N 51°27' E 002°41'0 0.1
2017-Jul-07 03:27N 51°27' E 002°41'0 0.0
2017-Jul-07 02:58N 51°27' E 002°41'0 0.0
2017-Jul-07 02:28N 51°27' E 002°41'0 0.0
2017-Jul-07 02:01N 51°27' E 002°41'0 0.0
2017-Jul-07 01:28N 51°27' E 002°41'0 0.0
2017-Jul-07 01:01N 51°27' E 002°41'0 0.0
2017-Jul-07 00:30N 51°27' E 002°41'0 0.0
2017-Jul-06 23:58N 51°27' E 002°41'0 0.0
2017-Jul-06 23:30N 51°27' E 002°41'0 0.0
2017-Jul-06 23:16N 51°27' E 002°41'353 9.1
2017-Jul-05 08:31N 48°50' W 005°31'611.3
2017-Jul-05 08:01N 48°46' W 005°38'611.1
2017-Jul-05 07:30N 48°41' W 005°41'510.9
2017-Jul-05 07:01N 48°36' W 005°45'510.4
2017-Jul-05 06:31N 48°33' W 005°51'510.3
2017-Jul-05 06:01N 48°29' W 005°57'510.4
2017-Jul-05 05:31N 48°26' W 006°03'510.3
2017-Jul-05 05:01N 48°23' W 006°09'510.5
2017-Jul-05 04:31N 48°19' W 006°15'510.9
2017-Jul-05 04:01N 48°16' W 006°21'510.8
2017-Jul-05 03:30N 48°12' W 006°27'13711.9
2017-Jul-04 15:59N 46°43' W 009°02'  

Dump ship's entire track history